Viimsi — ES2084 — position and weather

sailwx.info

Track history (hours):
 
Tides and Currents Weather Stations Pressure Air Temp Water Temp Dewpoint Dewpoint Depression Visibility Wind Speed Wind Dir Waves Ship Positions

Viimsi

Last reported at 2014-Oct-31 23:34 UTC. Time now 2014-Oct-31 23:46 UTC.
Position N 59°27' E 024°46'.

Length 78 m; draft 5 m.

Type: Ship. MMSI: 276297000.

Date/timePositionNaut miles runAvg speedWind from/ knotsBaromVisibWave heightAir tempDewpointWater temp
2014-Oct-31 23:34N 59°27' E 024°46'0 0.5
2014-Oct-31 22:34N 59°27' E 024°46'2 1.9
2014-Oct-31 21:33N 59°28' E 024°43'0 0.0
2014-Oct-31 20:33N 59°28' E 024°43'2 1.6
2014-Oct-31 19:33N 59°29' E 024°43'7 7.4
2014-Oct-31 18:33N 59°30' E 024°29'0 0.0
2014-Oct-29 15:23N 59°30' E 024°29'5 6.2
2014-Oct-29 14:33N 59°28' E 024°38'0 0.4
2014-Oct-29 13:33N 59°28' E 024°39'0 0.0
2014-Oct-29 11:29N 59°28' E 024°39'0 0.0
2014-Oct-29 10:34N 59°28' E 024°39'0 0.0
2014-Oct-29 09:33N 59°28' E 024°39'0 0.0
2014-Oct-29 08:33N 59°28' E 024°39'0 0.2
2014-Oct-29 07:33N 59°28' E 024°39'3 2.9
2014-Oct-29 06:33N 59°29' E 024°44'1 1.5
2014-Oct-29 05:33N 59°28' E 024°43'0 0.0
2014-Oct-29 04:33N 59°28' E 024°43'0 0.0
2014-Oct-29 03:33N 59°28' E 024°43'0 0.0
2014-Oct-29 02:33N 59°28' E 024°43'0 0.0
2014-Oct-29 01:33N 59°28' E 024°43'0 0.0
2014-Oct-29 00:33N 59°28' E 024°43'0 0.0
2014-Oct-28 23:33N 59°28' E 024°43'0 0.0
2014-Oct-28 22:33N 59°28' E 024°43'0 0.0
2014-Oct-28 21:33N 59°28' E 024°43'0 0.0
2014-Oct-28 20:33N 59°28' E 024°43'0 0.0
2014-Oct-28 19:33N 59°28' E 024°43'0 0.0
2014-Oct-28 18:33N 59°28' E 024°43'0 0.0
2014-Oct-28 17:33N 59°28' E 024°43'0 0.0
2014-Oct-28 16:33N 59°28' E 024°43'0 0.0
2014-Oct-28 15:33N 59°28' E 024°43'0 0.0
2014-Oct-28 14:33N 59°28' E 024°43'0 0.0
2014-Oct-28 13:33N 59°28' E 024°43'0 0.0
2014-Oct-28 12:33N 59°28' E 024°43'0 0.0
2014-Oct-28 11:33N 59°28' E 024°43'0 0.0
2014-Oct-28 10:33N 59°28' E 024°43'0 0.0
2014-Oct-28 09:33N 59°28' E 024°43'0 0.0
2014-Oct-28 08:33N 59°28' E 024°43'0 0.0
2014-Oct-28 07:33N 59°28' E 024°43'0 0.0
2014-Oct-28 06:33N 59°28' E 024°43'0 0.0
2014-Oct-28 05:33N 59°28' E 024°43'0 0.0
2014-Oct-28 04:33N 59°28' E 024°43'0 0.0
2014-Oct-28 03:33N 59°28' E 024°43'0 0.0
2014-Oct-28 02:33N 59°28' E 024°43'0 0.0
2014-Oct-28 01:33N 59°28' E 024°43'0 0.0
2014-Oct-28 00:33N 59°28' E 024°43'0 0.0
2014-Oct-27 23:33N 59°28' E 024°43'0 0.0
2014-Oct-27 22:33N 59°28' E 024°43'0 0.0
2014-Oct-27 21:33N 59°28' E 024°43'0 0.0
2014-Oct-27 20:33N 59°28' E 024°43'0 0.0
2014-Oct-27 19:33N 59°28' E 024°43'0 0.0
2014-Oct-27 18:33N 59°28' E 024°43'0 0.0
2014-Oct-27 17:33N 59°28' E 024°43'0 0.0
2014-Oct-27 16:33N 59°28' E 024°43'0 0.0
2014-Oct-27 15:33N 59°28' E 024°43'0 0.0
2014-Oct-27 14:33N 59°28' E 024°43'0 0.0
2014-Oct-27 13:33N 59°28' E 024°43'0 0.0
2014-Oct-27 12:33N 59°28' E 024°43'0 0.0
2014-Oct-27 11:33N 59°28' E 024°43'0 0.0
2014-Oct-27 10:33N 59°28' E 024°43'0 0.0
2014-Oct-27 09:33N 59°28' E 024°43'0 0.0
2014-Oct-27 08:33N 59°28' E 024°43'0 0.0
2014-Oct-27 07:33N 59°28' E 024°43'0 0.0
2014-Oct-27 06:33N 59°28' E 024°43'0 0.2
2014-Oct-27 05:33N 59°28' E 024°43'6 6.2
2014-Oct-27 04:33N 59°34' E 024°41'5 4.6
2014-Oct-27 03:33N 59°38' E 024°47'4 0.3
2014-Oct-26 15:33N 59°35' E 024°52'5 5.3
2014-Oct-26 14:33N 59°36' E 024°42'6 6.5
2014-Oct-26 13:33N 59°29' E 024°38'2 1.7
2014-Oct-26 12:33N 59°28' E 024°39'0 0.0
2014-Oct-26 11:33N 59°28' E 024°39'0 0.0
2014-Oct-26 10:33N 59°28' E 024°39'0 0.0
2014-Oct-26 09:33N 59°28' E 024°39'0 0.0
2014-Oct-26 08:33N 59°28' E 024°39'0 0.0
2014-Oct-26 07:33N 59°28' E 024°39'0 0.0
2014-Oct-26 06:33N 59°28' E 024°39'0 0.0
2014-Oct-26 05:33N 59°28' E 024°39'0 0.0
2014-Oct-26 04:33N 59°28' E 024°39'0 0.0
2014-Oct-26 03:33N 59°28' E 024°39'0 0.0
2014-Oct-26 02:33N 59°28' E 024°39'2 2.3
2014-Oct-26 01:33N 59°30' E 024°40'5 4.6
2014-Oct-26 00:33N 59°27' E 024°46'0 0.0
2014-Oct-25 23:33N 59°27' E 024°46'0 0.0
2014-Oct-25 22:33N 59°27' E 024°46'0 0.0
2014-Oct-25 21:33N 59°27' E 024°46'0 0.0
2014-Oct-25 20:33N 59°27' E 024°46'0 0.3
2014-Oct-25 19:33N 59°27' E 024°47'2 2.0
2014-Oct-25 18:33N 59°28' E 024°43'0 0.0
2014-Oct-25 17:33N 59°28' E 024°43'0 0.0
2014-Oct-25 16:33N 59°28' E 024°43'0 0.0
2014-Oct-25 15:33N 59°28' E 024°43'0 0.0
2014-Oct-25 14:33N 59°28' E 024°43'0 0.0
2014-Oct-25 13:33N 59°28' E 024°43'0 0.0
2014-Oct-25 12:33N 59°28' E 024°43'0 0.0
2014-Oct-25 11:33N 59°28' E 024°43'0 0.0
2014-Oct-25 10:33N 59°28' E 024°43'0 0.0
2014-Oct-25 09:33N 59°28' E 024°43'0 0.0
2014-Oct-25 08:33N 59°28' E 024°43'0 0.0
2014-Oct-25 07:33N 59°28' E 024°43'0 0.0
2014-Oct-25 06:33N 59°28' E 024°43'0 0.0
2014-Oct-25 05:33N 59°28' E 024°43'0 0.0
2014-Oct-25 04:33N 59°28' E 024°43'0 0.0
2014-Oct-25 03:33N 59°28' E 024°43'2 2.0
2014-Oct-25 02:33N 59°27' E 024°46'0 0.0
2014-Oct-25 01:33N 59°27' E 024°46'0 0.0
2014-Oct-25 00:33N 59°27' E 024°46'0 0.0
2014-Oct-24 23:33N 59°27' E 024°46'0 0.0
2014-Oct-24 22:33N 59°27' E 024°46'1 1.0
2014-Oct-24 21:33N 59°28' E 024°46'4 4.0
2014-Oct-24 20:33N 59°28' E 024°38'0 0.4
2014-Oct-24 19:33N 59°28' E 024°39'0 0.0
2014-Oct-24 18:33N 59°28' E 024°39'0 0.0
2014-Oct-24 17:33N 59°28' E 024°39'0 0.0
2014-Oct-24 16:33N 59°28' E 024°39'0 0.0
2014-Oct-24 15:33N 59°28' E 024°39'3 3.4
2014-Oct-24 14:33N 59°31' E 024°37'7 6.9
2014-Oct-24 13:33N 59°38' E 024°42'7 7.0
2014-Oct-24 12:33N 59°34' E 024°54'2 0.1
2014-Oct-23 22:33N 59°32' E 024°57'7 7.1
2014-Oct-23 21:33N 59°37' E 024°46'7 7.0
2014-Oct-23 20:33N 59°38' E 024°32'10 0.8
2014-Oct-23 07:33N 59°28' E 024°36'1 1.4
2014-Oct-23 06:33N 59°28' E 024°39'0 0.0
2014-Oct-23 05:33N 59°28' E 024°39'0 0.0
2014-Oct-23 04:33N 59°28' E 024°39'0 0.0
2014-Oct-23 03:33N 59°28' E 024°39'0 0.0
2014-Oct-23 02:33N 59°28' E 024°39'0 0.0
2014-Oct-23 01:33N 59°28' E 024°39'0 0.0
2014-Oct-23 00:33N 59°28' E 024°39'0 0.0
2014-Oct-22 23:33N 59°28' E 024°39'0 0.0
2014-Oct-22 22:33N 59°28' E 024°39'0 0.0
2014-Oct-22 21:33N 59°28' E 024°39'0 0.0
2014-Oct-22 20:33N 59°28' E 024°39'5 4.8
2014-Oct-22 19:33N 59°31' E 024°32'1 1.3
2014-Oct-22 18:33N 59°32' E 024°30'0 0.0
2014-Oct-22 17:33N 59°32' E 024°30'0 0.0
2014-Oct-22 16:33N 59°32' E 024°30'0 0.0
2014-Oct-22 15:33N 59°32' E 024°30'0 0.2
2014-Oct-22 14:34N 59°32' E 024°30'0 0.1
2014-Oct-22 13:33N 59°32' E 024°30'0 0.0
2014-Oct-22 12:33N 59°32' E 024°30'0 0.0
2014-Oct-22 11:33N 59°32' E 024°30'0 0.0
2014-Oct-22 10:34N 59°32' E 024°30'0 0.0
2014-Oct-22 09:33N 59°32' E 024°30'0 0.3
2014-Oct-22 08:34N 59°32' E 024°30'0 0.0
2014-Oct-22 07:33N 59°32' E 024°30'0 0.0
2014-Oct-22 06:33N 59°32' E 024°30'0 0.0
2014-Oct-22 05:33N 59°32' E 024°30'0 0.0
2014-Oct-22 04:33N 59°32' E 024°30'0 0.0
2014-Oct-22 03:33N 59°32' E 024°30'0 0.0
2014-Oct-22 02:33N 59°32' E 024°30'0 0.1
2014-Oct-22 01:33N 59°32' E 024°30'7 6.9
2014-Oct-22 00:33N 59°30' E 024°43'  
Track history (hours):
 
Tides and Currents Weather Stations Pressure Air Temp Water Temp Dewpoint Dewpoint Depression Visibility Wind Speed Wind Dir Waves Ship Positions

Viimsi

Last reported at 2014-Oct-31 23:34 UTC. Time now 2014-Oct-31 23:46 UTC.
Position N 59°27' E 024°46'.

Length 78 m; draft 5 m.

Type: Ship. MMSI: 276297000.

Date/timePositionNaut miles runAvg speedWind from/ knotsBaromVisibWave heightAir tempDewpointWater temp
2014-Oct-31 23:34N 59°27' E 024°46'0 0.5
2014-Oct-31 22:34N 59°27' E 024°46'2 1.9
2014-Oct-31 21:33N 59°28' E 024°43'0 0.0
2014-Oct-31 20:33N 59°28' E 024°43'2 1.6
2014-Oct-31 19:33N 59°29' E 024°43'7 7.4
2014-Oct-31 18:33N 59°30' E 024°29'0 0.0
2014-Oct-29 15:23N 59°30' E 024°29'5 6.2
2014-Oct-29 14:33N 59°28' E 024°38'0 0.4
2014-Oct-29 13:33N 59°28' E 024°39'0 0.0
2014-Oct-29 11:29N 59°28' E 024°39'0 0.0
2014-Oct-29 10:34N 59°28' E 024°39'0 0.0
2014-Oct-29 09:33N 59°28' E 024°39'0 0.0
2014-Oct-29 08:33N 59°28' E 024°39'0 0.2
2014-Oct-29 07:33N 59°28' E 024°39'3 2.9
2014-Oct-29 06:33N 59°29' E 024°44'1 1.5
2014-Oct-29 05:33N 59°28' E 024°43'0 0.0
2014-Oct-29 04:33N 59°28' E 024°43'0 0.0
2014-Oct-29 03:33N 59°28' E 024°43'0 0.0
2014-Oct-29 02:33N 59°28' E 024°43'0 0.0
2014-Oct-29 01:33N 59°28' E 024°43'0 0.0
2014-Oct-29 00:33N 59°28' E 024°43'0 0.0
2014-Oct-28 23:33N 59°28' E 024°43'0 0.0
2014-Oct-28 22:33N 59°28' E 024°43'0 0.0
2014-Oct-28 21:33N 59°28' E 024°43'0 0.0
2014-Oct-28 20:33N 59°28' E 024°43'0 0.0
2014-Oct-28 19:33N 59°28' E 024°43'0 0.0
2014-Oct-28 18:33N 59°28' E 024°43'0 0.0
2014-Oct-28 17:33N 59°28' E 024°43'0 0.0
2014-Oct-28 16:33N 59°28' E 024°43'0 0.0
2014-Oct-28 15:33N 59°28' E 024°43'0 0.0
2014-Oct-28 14:33N 59°28' E 024°43'0 0.0
2014-Oct-28 13:33N 59°28' E 024°43'0 0.0
2014-Oct-28 12:33N 59°28' E 024°43'0 0.0
2014-Oct-28 11:33N 59°28' E 024°43'0 0.0
2014-Oct-28 10:33N 59°28' E 024°43'0 0.0
2014-Oct-28 09:33N 59°28' E 024°43'0 0.0
2014-Oct-28 08:33N 59°28' E 024°43'0 0.0
2014-Oct-28 07:33N 59°28' E 024°43'0 0.0
2014-Oct-28 06:33N 59°28' E 024°43'0 0.0
2014-Oct-28 05:33N 59°28' E 024°43'0 0.0
2014-Oct-28 04:33N 59°28' E 024°43'0 0.0
2014-Oct-28 03:33N 59°28' E 024°43'0 0.0
2014-Oct-28 02:33N 59°28' E 024°43'0 0.0
2014-Oct-28 01:33N 59°28' E 024°43'0 0.0
2014-Oct-28 00:33N 59°28' E 024°43'0 0.0
2014-Oct-27 23:33N 59°28' E 024°43'0 0.0
2014-Oct-27 22:33N 59°28' E 024°43'0 0.0
2014-Oct-27 21:33N 59°28' E 024°43'0 0.0
2014-Oct-27 20:33N 59°28' E 024°43'0 0.0
2014-Oct-27 19:33N 59°28' E 024°43'0 0.0
2014-Oct-27 18:33N 59°28' E 024°43'0 0.0
2014-Oct-27 17:33N 59°28' E 024°43'0 0.0
2014-Oct-27 16:33N 59°28' E 024°43'0 0.0
2014-Oct-27 15:33N 59°28' E 024°43'0 0.0
2014-Oct-27 14:33N 59°28' E 024°43'0 0.0
2014-Oct-27 13:33N 59°28' E 024°43'0 0.0
2014-Oct-27 12:33N 59°28' E 024°43'0 0.0
2014-Oct-27 11:33N 59°28' E 024°43'0 0.0
2014-Oct-27 10:33N 59°28' E 024°43'0 0.0
2014-Oct-27 09:33N 59°28' E 024°43'0 0.0
2014-Oct-27 08:33N 59°28' E 024°43'0 0.0
2014-Oct-27 07:33N 59°28' E 024°43'0 0.0
2014-Oct-27 06:33N 59°28' E 024°43'0 0.2
2014-Oct-27 05:33N 59°28' E 024°43'6 6.2
2014-Oct-27 04:33N 59°34' E 024°41'5 4.6
2014-Oct-27 03:33N 59°38' E 024°47'4 0.3
2014-Oct-26 15:33N 59°35' E 024°52'5 5.3
2014-Oct-26 14:33N 59°36' E 024°42'6 6.5
2014-Oct-26 13:33N 59°29' E 024°38'2 1.7
2014-Oct-26 12:33N 59°28' E 024°39'0 0.0
2014-Oct-26 11:33N 59°28' E 024°39'0 0.0
2014-Oct-26 10:33N 59°28' E 024°39'0 0.0
2014-Oct-26 09:33N 59°28' E 024°39'0 0.0
2014-Oct-26 08:33N 59°28' E 024°39'0 0.0
2014-Oct-26 07:33N 59°28' E 024°39'0 0.0
2014-Oct-26 06:33N 59°28' E 024°39'0 0.0
2014-Oct-26 05:33N 59°28' E 024°39'0 0.0
2014-Oct-26 04:33N 59°28' E 024°39'0 0.0
2014-Oct-26 03:33N 59°28' E 024°39'0 0.0
2014-Oct-26 02:33N 59°28' E 024°39'2 2.3
2014-Oct-26 01:33N 59°30' E 024°40'5 4.6
2014-Oct-26 00:33N 59°27' E 024°46'0 0.0
2014-Oct-25 23:33N 59°27' E 024°46'0 0.0
2014-Oct-25 22:33N 59°27' E 024°46'0 0.0
2014-Oct-25 21:33N 59°27' E 024°46'0 0.0
2014-Oct-25 20:33N 59°27' E 024°46'0 0.3
2014-Oct-25 19:33N 59°27' E 024°47'2 2.0
2014-Oct-25 18:33N 59°28' E 024°43'0 0.0
2014-Oct-25 17:33N 59°28' E 024°43'0 0.0
2014-Oct-25 16:33N 59°28' E 024°43'0 0.0
2014-Oct-25 15:33N 59°28' E 024°43'0 0.0
2014-Oct-25 14:33N 59°28' E 024°43'0 0.0
2014-Oct-25 13:33N 59°28' E 024°43'0 0.0
2014-Oct-25 12:33N 59°28' E 024°43'0 0.0
2014-Oct-25 11:33N 59°28' E 024°43'0 0.0
2014-Oct-25 10:33N 59°28' E 024°43'0 0.0
2014-Oct-25 09:33N 59°28' E 024°43'0 0.0
2014-Oct-25 08:33N 59°28' E 024°43'0 0.0
2014-Oct-25 07:33N 59°28' E 024°43'0 0.0
2014-Oct-25 06:33N 59°28' E 024°43'0 0.0
2014-Oct-25 05:33N 59°28' E 024°43'0 0.0
2014-Oct-25 04:33N 59°28' E 024°43'0 0.0
2014-Oct-25 03:33N 59°28' E 024°43'2 2.0
2014-Oct-25 02:33N 59°27' E 024°46'0 0.0
2014-Oct-25 01:33N 59°27' E 024°46'0 0.0
2014-Oct-25 00:33N 59°27' E 024°46'0 0.0
2014-Oct-24 23:33N 59°27' E 024°46'0 0.0
2014-Oct-24 22:33N 59°27' E 024°46'1 1.0
2014-Oct-24 21:33N 59°28' E 024°46'4 4.0
2014-Oct-24 20:33N 59°28' E 024°38'0 0.4
2014-Oct-24 19:33N 59°28' E 024°39'0 0.0
2014-Oct-24 18:33N 59°28' E 024°39'0 0.0
2014-Oct-24 17:33N 59°28' E 024°39'0 0.0
2014-Oct-24 16:33N 59°28' E 024°39'0 0.0
2014-Oct-24 15:33N 59°28' E 024°39'3 3.4
2014-Oct-24 14:33N 59°31' E 024°37'7 6.9
2014-Oct-24 13:33N 59°38' E 024°42'7 7.0
2014-Oct-24 12:33N 59°34' E 024°54'2 0.1
2014-Oct-23 22:33N 59°32' E 024°57'7 7.1
2014-Oct-23 21:33N 59°37' E 024°46'7 7.0
2014-Oct-23 20:33N 59°38' E 024°32'10 0.8
2014-Oct-23 07:33N 59°28' E 024°36'1 1.4
2014-Oct-23 06:33N 59°28' E 024°39'0 0.0
2014-Oct-23 05:33N 59°28' E 024°39'0 0.0
2014-Oct-23 04:33N 59°28' E 024°39'0 0.0
2014-Oct-23 03:33N 59°28' E 024°39'0 0.0
2014-Oct-23 02:33N 59°28' E 024°39'0 0.0
2014-Oct-23 01:33N 59°28' E 024°39'0 0.0
2014-Oct-23 00:33N 59°28' E 024°39'0 0.0
2014-Oct-22 23:33N 59°28' E 024°39'0 0.0
2014-Oct-22 22:33N 59°28' E 024°39'0 0.0
2014-Oct-22 21:33N 59°28' E 024°39'0 0.0
2014-Oct-22 20:33N 59°28' E 024°39'5 4.8
2014-Oct-22 19:33N 59°31' E 024°32'1 1.3
2014-Oct-22 18:33N 59°32' E 024°30'0 0.0
2014-Oct-22 17:33N 59°32' E 024°30'0 0.0
2014-Oct-22 16:33N 59°32' E 024°30'0 0.0
2014-Oct-22 15:33N 59°32' E 024°30'0 0.2
2014-Oct-22 14:34N 59°32' E 024°30'0 0.1
2014-Oct-22 13:33N 59°32' E 024°30'0 0.0
2014-Oct-22 12:33N 59°32' E 024°30'0 0.0
2014-Oct-22 11:33N 59°32' E 024°30'0 0.0
2014-Oct-22 10:34N 59°32' E 024°30'0 0.0
2014-Oct-22 09:33N 59°32' E 024°30'0 0.3
2014-Oct-22 08:34N 59°32' E 024°30'0 0.0
2014-Oct-22 07:33N 59°32' E 024°30'0 0.0
2014-Oct-22 06:33N 59°32' E 024°30'0 0.0
2014-Oct-22 05:33N 59°32' E 024°30'0 0.0
2014-Oct-22 04:33N 59°32' E 024°30'0 0.0
2014-Oct-22 03:33N 59°32' E 024°30'0 0.0
2014-Oct-22 02:33N 59°32' E 024°30'0 0.1
2014-Oct-22 01:33N 59°32' E 024°30'7 6.9
2014-Oct-22 00:33N 59°30' E 024°43'  

Dump ship's entire track history